createdAt,value
2022-10-11T00:02:02.479Z,28.92
2022-10-11T00:04:47.830Z,23.38
2022-10-11T00:07:33.400Z,15.70
2022-10-11T00:10:19.756Z,19.33
2022-10-11T00:13:05.980Z,24.25
2022-10-11T00:15:51.590Z,20.25
2022-10-11T00:18:37.186Z,14.52
2022-10-11T00:21:22.524Z,24.63
2022-10-11T00:24:08.251Z,21.95
2022-10-11T00:26:53.337Z,16.17
2022-10-11T00:29:39.763Z,20.75
2022-10-11T00:32:25.189Z,24.25
2022-10-11T00:35:10.807Z,20.40
2022-10-11T00:37:57.251Z,20.70
2022-10-11T00:40:43.004Z,20.48
2022-10-11T00:43:30.462Z,19.52
2022-10-11T00:46:19.534Z,21.20
2022-10-11T00:49:14.083Z,24.38
2022-10-11T00:52:04.615Z,21.63
2022-10-11T00:54:49.995Z,17.23
2022-10-11T00:57:39.988Z,20.30
2022-10-11T01:00:25.371Z,17.92
2022-10-11T01:03:11.069Z,18.67
2022-10-11T01:05:58.737Z,18.30
2022-10-11T01:08:44.688Z,17.08
2022-10-11T01:11:31.270Z,16.50
2022-10-11T01:14:38.722Z,17.38
2022-10-11T01:17:30.091Z,22.98
2022-10-11T01:20:31.875Z,27.23
2022-10-11T01:23:44.146Z,19.02
2022-10-11T01:26:51.304Z,18.15
2022-10-11T01:29:42.377Z,21.52
2022-10-11T01:32:35.259Z,23.00
2022-10-11T01:35:29.681Z,24.42
2022-10-11T01:38:21.347Z,17.77
2022-10-11T01:41:15.380Z,19.80
2022-10-11T01:44:02.318Z,13.32
2022-10-11T01:46:47.800Z,20.95
2022-10-11T01:49:33.611Z,14.63
2022-10-11T01:52:18.918Z,16.60
2022-10-11T01:55:29.939Z,19.90
2022-10-11T01:58:21.475Z,23.35
2022-10-11T02:01:30.812Z,19.95
2022-10-11T02:04:28.659Z,21.98
2022-10-11T02:07:26.046Z,23.67
2022-10-11T02:10:36.280Z,24.80
2022-10-11T02:13:38.006Z,14.90
2022-10-11T02:16:31.024Z,19.08
2022-10-11T02:19:22.403Z,15.43
2022-10-11T02:22:18.435Z,23.60
2022-10-11T02:25:09.737Z,20.38
2022-10-11T02:27:59.830Z,22.05
2022-10-11T02:30:48.315Z,26.52
2022-10-11T02:33:50.314Z,28.00
2022-10-11T02:36:56.467Z,16.13
2022-10-11T02:40:14.469Z,22.90
2022-10-11T02:43:12.376Z,15.82
2022-10-11T02:46:02.631Z,13.95
2022-10-11T02:48:48.472Z,23.27
2022-10-11T02:51:34.231Z,15.15
2022-10-11T02:54:19.707Z,19.30
2022-10-11T02:57:05.522Z,14.35
2022-10-11T02:59:52.972Z,20.58
2022-10-11T03:02:38.380Z,17.48
2022-10-11T03:05:23.903Z,20.35
2022-10-11T03:08:14.188Z,23.92
2022-10-11T03:11:06.438Z,20.73
2022-10-11T03:13:55.219Z,21.10
2022-10-11T03:16:41.792Z,12.20
2022-10-11T03:19:30.324Z,15.60
2022-10-11T03:22:24.933Z,17.23
2022-10-11T03:25:10.649Z,19.50
2022-10-11T03:27:55.917Z,31.10
2022-10-11T03:30:41.318Z,17.67
2022-10-11T03:33:29.671Z,20.58
2022-10-11T03:36:14.795Z,20.38
2022-10-11T03:39:00.612Z,20.70
2022-10-11T03:41:46.002Z,24.13
2022-10-11T03:44:31.276Z,25.10
2022-10-11T03:47:17.232Z,17.85
2022-10-11T03:50:02.792Z,21.15
2022-10-11T03:52:48.620Z,23.55
2022-10-11T03:55:33.811Z,21.77
2022-10-11T03:58:19.061Z,20.60
2022-10-11T04:01:08.112Z,16.02
2022-10-11T04:03:57.498Z,22.58
2022-10-11T04:06:42.842Z,16.75
2022-10-11T04:09:28.831Z,22.85
2022-10-11T04:12:14.889Z,14.82
2022-10-11T04:14:59.979Z,20.10
2022-10-11T04:17:45.539Z,19.00
2022-10-11T04:20:31.269Z,19.05
2022-10-11T04:23:16.593Z,15.02
2022-10-11T04:26:07.590Z,13.75
2022-10-11T04:28:53.378Z,18.08
2022-10-11T04:31:38.487Z,15.18
2022-10-11T04:34:24.387Z,16.92
2022-10-11T04:37:29.800Z,18.30
2022-10-11T04:40:14.793Z,13.98
2022-10-11T04:43:00.475Z,21.13
2022-10-11T04:45:45.952Z,15.07
2022-10-11T04:48:31.607Z,15.10
2022-10-11T04:51:17.400Z,19.77
2022-10-11T04:54:02.875Z,16.20
2022-10-11T04:56:48.443Z,16.58
2022-10-11T04:59:33.791Z,13.52
2022-10-11T05:02:19.360Z,13.02
2022-10-11T05:05:05.271Z,18.27
2022-10-11T05:07:50.387Z,15.85
2022-10-11T05:10:35.861Z,26.92
2022-10-11T05:13:21.146Z,20.65
2022-10-11T05:16:10.575Z,16.80
2022-10-11T05:18:56.685Z,19.65
2022-10-11T05:21:42.137Z,18.25
2022-10-11T05:24:27.607Z,15.57
2022-10-11T05:27:12.886Z,13.32
2022-10-11T05:29:58.537Z,15.90
2022-10-11T05:32:44.132Z,19.45
2022-10-11T05:35:29.538Z,18.38
2022-10-11T05:38:14.724Z,19.00
2022-10-11T05:41:01.411Z,21.58
2022-10-11T05:43:47.260Z,22.05
2022-10-11T05:46:33.148Z,17.95
2022-10-11T05:49:18.310Z,18.35
2022-10-11T05:52:06.701Z,23.20
2022-10-11T05:54:52.144Z,19.00
2022-10-11T05:57:37.536Z,10.98
2022-10-11T06:00:24.011Z,16.08
2022-10-11T06:03:12.592Z,15.13
2022-10-11T06:06:01.646Z,15.60
2022-10-11T06:08:50.658Z,14.13
2022-10-11T06:11:36.107Z,17.50
2022-10-11T06:14:25.474Z,14.90
2022-10-11T06:17:10.911Z,12.35
2022-10-11T06:19:56.351Z,13.50
2022-10-11T06:22:42.624Z,21.17
2022-10-11T06:25:27.733Z,14.50
2022-10-11T06:28:16.197Z,15.63
2022-10-11T06:31:04.392Z,19.92
2022-10-11T06:33:52.644Z,11.98
2022-10-11T06:36:38.034Z,20.75
2022-10-11T06:39:23.682Z,17.08
2022-10-11T06:42:11.331Z,15.90
2022-10-11T06:44:56.807Z,22.20
2022-10-11T06:47:42.151Z,22.98
2022-10-11T06:50:54.470Z,28.27
2022-10-11T06:53:35.508Z,28.42
2022-10-11T06:56:20.917Z,23.55
2022-10-11T06:59:06.212Z,23.48
2022-10-11T07:01:51.495Z,19.05
2022-10-11T07:04:37.090Z,14.45
2022-10-11T07:07:25.079Z,14.50
2022-10-11T07:10:10.615Z,20.42
2022-10-11T07:12:55.750Z,18.55
2022-10-11T07:15:41.283Z,17.58
2022-10-11T07:18:26.566Z,15.70
2022-10-11T07:21:14.804Z,19.77
2022-10-11T07:24:00.943Z,19.35
2022-10-11T07:26:46.444Z,15.90
2022-10-11T07:29:32.058Z,14.18
2022-10-11T07:32:17.706Z,15.45
2022-10-11T07:35:03.152Z,30.15
2022-10-11T07:37:48.351Z,18.92
2022-10-11T07:40:40.515Z,23.63
2022-10-11T07:43:26.174Z,13.82
2022-10-11T07:46:11.863Z,17.33
2022-10-11T07:49:00.317Z,14.45
2022-10-11T07:51:45.866Z,17.75
2022-10-11T07:54:33.027Z,16.90
2022-10-11T07:57:18.728Z,18.52
2022-10-11T08:00:10.019Z,16.05
2022-10-11T08:02:59.542Z,18.55
2022-10-11T08:05:45.080Z,19.67
2022-10-11T08:08:31.342Z,21.35
2022-10-11T08:11:22.366Z,22.52
2022-10-11T08:14:09.210Z,16.92
2022-10-11T08:16:54.292Z,19.92
2022-10-11T08:19:40.319Z,18.20
2022-10-11T08:22:25.899Z,14.60
2022-10-11T08:25:11.397Z,23.42
2022-10-11T08:27:56.852Z,21.38
2022-10-11T08:30:49.309Z,23.48
2022-10-11T08:33:34.765Z,12.82
2022-10-11T08:36:19.972Z,19.55
2022-10-11T08:39:06.579Z,20.75
2022-10-11T08:41:55.621Z,19.08
2022-10-11T08:45:09.565Z,15.02
2022-10-11T08:48:12.738Z,15.43
2022-10-11T08:50:59.096Z,20.05
2022-10-11T08:53:53.500Z,11.20
2022-10-11T08:56:39.993Z,18.40
2022-10-11T08:59:47.866Z,16.02
2022-10-11T09:03:14.329Z,17.92
2022-10-11T09:06:07.402Z,23.75
2022-10-11T09:09:09.125Z,22.38
2022-10-11T09:12:15.584Z,16.20
2022-10-11T09:15:20.230Z,13.63
2022-10-11T09:18:26.825Z,16.33
2022-10-11T09:21:21.053Z,17.92
2022-10-11T09:24:36.562Z,16.85
2022-10-11T09:28:04.246Z,16.52
2022-10-11T09:30:53.624Z,16.42
2022-10-11T09:33:50.640Z,16.48
2022-10-11T09:37:03.384Z,14.77
2022-10-11T09:39:57.357Z,10.95
2022-10-11T09:42:42.634Z,17.80
2022-10-11T09:45:27.944Z,18.65
2022-10-11T09:48:21.386Z,14.55
2022-10-11T09:51:14.687Z,13.60
2022-10-11T09:54:05.775Z,16.55
2022-10-11T09:56:51.712Z,11.95
2022-10-11T09:59:37.599Z,16.30
2022-10-11T10:02:24.739Z,9.68
2022-10-11T10:05:10.096Z,10.68
2022-10-11T10:08:22.756Z,12.98
2022-10-11T10:11:09.731Z,13.85
2022-10-11T10:13:56.242Z,11.57
2022-10-11T10:16:44.330Z,16.05
2022-10-11T10:19:33.508Z,12.88
2022-10-11T10:22:27.635Z,15.90
2022-10-11T10:25:26.022Z,15.93
2022-10-11T10:28:24.530Z,14.40
2022-10-11T10:31:23.044Z,10.95
2022-10-11T10:34:18.699Z,15.13
2022-10-11T10:37:19.981Z,10.15
2022-10-11T10:40:32.509Z,20.88
2022-10-11T10:43:23.569Z,14.57
2022-10-11T10:46:21.271Z,10.18
2022-10-11T10:49:52.587Z,12.55
2022-10-11T10:53:00.850Z,9.20
2022-10-11T10:55:52.449Z,12.48
2022-10-11T10:59:03.058Z,16.67
2022-10-11T11:02:35.379Z,11.45
2022-10-11T11:05:30.460Z,15.73
2022-10-11T11:08:19.005Z,18.40
2022-10-11T11:11:13.282Z,14.52
2022-10-11T11:14:19.753Z,11.55
2022-10-11T11:17:40.926Z,12.35
2022-10-11T11:21:09.093Z,12.30
2022-10-11T11:24:00.808Z,13.25
2022-10-11T11:27:10.049Z,13.43
2022-10-11T11:30:08.169Z,15.90
2022-10-11T11:33:26.994Z,12.82
2022-10-11T11:36:18.037Z,14.13
2022-10-11T11:39:06.831Z,12.75
2022-10-11T11:42:15.251Z,9.40
2022-10-11T11:45:16.304Z,15.27
2022-10-11T11:48:12.499Z,10.38
2022-10-11T11:51:15.936Z,10.13
2022-10-11T11:54:06.266Z,9.98
2022-10-11T11:57:11.941Z,12.77
2022-10-11T12:00:06.533Z,9.50
2022-10-11T12:03:29.768Z,11.30
2022-10-11T12:06:31.631Z,11.98
2022-10-11T12:09:17.104Z,9.45
2022-10-11T12:12:06.810Z,13.48
2022-10-11T12:15:02.303Z,15.60
2022-10-11T12:17:57.122Z,12.38
2022-10-11T12:20:44.281Z,11.82
2022-10-11T12:23:29.957Z,12.68
2022-10-11T12:26:27.435Z,12.13
2022-10-11T12:29:20.789Z,14.35
2022-10-11T12:32:10.906Z,17.38
2022-10-11T12:35:37.193Z,11.60
2022-10-11T12:38:30.913Z,15.35
2022-10-11T12:41:17.190Z,8.10
2022-10-11T12:44:13.434Z,9.57
2022-10-11T12:47:32.726Z,12.93
2022-10-11T12:50:36.790Z,13.90
2022-10-11T12:54:02.280Z,13.55
2022-10-11T12:57:31.742Z,9.65
2022-10-11T13:00:28.119Z,8.90
2022-10-11T13:03:33.498Z,13.82
2022-10-11T13:06:48.711Z,15.05
2022-10-11T13:09:39.202Z,11.15
2022-10-11T13:12:27.556Z,15.32
2022-10-11T13:15:20.811Z,12.50
2022-10-11T13:18:06.313Z,10.60
2022-10-11T13:20:52.351Z,17.30
2022-10-11T13:23:44.468Z,13.15
2022-10-11T13:26:31.307Z,12.15
2022-10-11T13:29:37.070Z,11.32
2022-10-11T13:32:26.335Z,13.40
2022-10-11T13:35:31.516Z,9.65
2022-10-11T13:38:35.047Z,15.75
2022-10-11T13:41:26.411Z,15.00
2022-10-11T13:44:12.806Z,9.02
2022-10-11T13:47:01.091Z,13.02
2022-10-11T13:49:53.444Z,14.45
2022-10-11T13:52:55.660Z,16.75
2022-10-11T13:55:50.080Z,12.82
2022-10-11T13:58:44.872Z,16.13
2022-10-11T14:01:44.426Z,14.23
2022-10-11T14:04:41.551Z,15.13
2022-10-11T14:07:38.275Z,14.02
2022-10-11T14:10:24.768Z,11.00
2022-10-11T14:13:25.673Z,12.43
2022-10-11T14:16:20.161Z,15.75
2022-10-11T14:19:10.703Z,15.05
2022-10-11T14:21:56.456Z,13.32
2022-10-11T14:24:43.535Z,13.43
2022-10-11T14:27:29.428Z,20.15
2022-10-11T14:30:26.451Z,11.43
2022-10-11T14:33:12.934Z,14.02
2022-10-11T14:35:58.184Z,14.23
2022-10-11T14:38:43.884Z,13.48
2022-10-11T14:41:29.161Z,14.88
2022-10-11T14:44:18.535Z,13.48
2022-10-11T14:47:06.692Z,12.82
2022-10-11T14:49:54.939Z,11.98
2022-10-11T14:52:40.402Z,15.27
2022-10-11T14:55:26.350Z,13.65
2022-10-11T14:58:15.649Z,16.42
2022-10-11T15:01:01.102Z,15.63
2022-10-11T15:03:49.408Z,12.85
2022-10-11T15:06:38.774Z,12.25
2022-10-11T15:09:25.200Z,11.98
2022-10-11T15:12:10.508Z,13.10
2022-10-11T15:14:56.092Z,11.35
2022-10-11T15:17:41.467Z,14.10
2022-10-11T15:20:42.428Z,12.43
2022-10-11T15:23:31.224Z,15.85
2022-10-11T15:26:20.097Z,11.77
2022-10-11T15:29:06.830Z,17.13
2022-10-11T15:31:52.091Z,11.25
2022-10-11T15:34:37.673Z,10.05
2022-10-11T15:37:25.486Z,9.18
2022-10-11T15:40:21.095Z,8.25
2022-10-11T15:43:06.723Z,15.32
2022-10-11T15:45:52.647Z,15.50
2022-10-11T15:48:38.674Z,13.40
2022-10-11T15:51:23.999Z,10.40
2022-10-11T15:54:09.592Z,16.98
2022-10-11T15:56:55.674Z,15.55
2022-10-11T15:59:41.129Z,13.23
2022-10-11T16:02:26.802Z,12.18
2022-10-11T16:05:12.080Z,15.82
2022-10-11T16:07:57.722Z,9.55
2022-10-11T16:10:44.376Z,13.52
2022-10-11T16:13:30.155Z,10.68
2022-10-11T16:16:15.668Z,9.63
2022-10-11T16:19:01.143Z,10.98
2022-10-11T16:21:46.431Z,12.07
2022-10-11T16:24:31.917Z,11.35
2022-10-11T16:27:19.022Z,12.52
2022-10-11T16:30:06.083Z,13.00
2022-10-11T16:32:54.964Z,12.88
2022-10-11T16:35:43.914Z,13.77
2022-10-11T16:38:29.040Z,19.35
2022-10-11T16:41:14.648Z,15.63
2022-10-11T16:43:59.971Z,9.13
2022-10-11T16:46:48.265Z,19.83
2022-10-11T16:49:36.430Z,14.93
2022-10-11T16:52:21.847Z,14.27
2022-10-11T16:55:07.599Z,15.93
2022-10-11T16:57:53.043Z,15.75
2022-10-11T17:00:43.424Z,12.63
2022-10-11T17:03:35.436Z,13.60
2022-10-11T17:06:20.532Z,17.83
2022-10-11T17:09:09.395Z,18.17
2022-10-11T17:11:54.490Z,20.50
2022-10-11T17:14:41.192Z,21.15
2022-10-11T17:21:35.272Z,13.48
2022-10-11T17:24:24.116Z,13.13
2022-10-11T17:27:09.784Z,17.13
2022-10-11T17:29:58.112Z,13.52
2022-10-11T17:32:43.698Z,16.77
2022-10-11T17:35:31.904Z,15.82
2022-10-11T17:38:19.920Z,21.15
2022-10-11T17:41:08.526Z,23.20
2022-10-11T17:43:54.195Z,19.80
2022-10-11T17:46:40.167Z,19.38
2022-10-11T17:49:25.774Z,23.23
2022-10-11T17:52:13.887Z,20.58
2022-10-11T17:54:59.288Z,17.50
2022-10-11T17:57:44.953Z,18.65
2022-10-11T18:00:30.200Z,19.75
2022-10-11T18:03:15.556Z,16.23
2022-10-11T18:06:06.326Z,20.40
2022-10-11T18:08:51.647Z,15.70
2022-10-11T18:11:47.652Z,25.70
2022-10-11T18:14:33.105Z,16.60
2022-10-11T18:17:18.985Z,24.48
2022-10-11T18:20:06.553Z,17.17
2022-10-11T18:22:56.062Z,21.50
2022-10-11T18:25:41.688Z,18.75
2022-10-11T18:28:27.256Z,18.85
2022-10-11T18:31:16.843Z,26.27
2022-10-11T18:34:08.287Z,18.60
2022-10-11T18:36:54.073Z,21.13
2022-10-11T18:39:39.597Z,25.10
2022-10-11T18:42:25.081Z,19.85
2022-10-11T18:45:10.943Z,19.50
2022-10-11T18:47:56.185Z,23.80
2022-10-11T18:50:41.379Z,21.83
2022-10-11T18:53:26.926Z,29.77
2022-10-11T18:56:13.486Z,21.45
2022-10-11T18:58:59.080Z,22.60
2022-10-11T19:01:44.974Z,25.45
2022-10-11T19:04:34.056Z,22.35
2022-10-11T19:07:20.939Z,23.00
2022-10-11T19:10:06.719Z,31.00
2022-10-11T19:12:51.908Z,25.80
2022-10-11T19:15:37.754Z,28.75
2022-10-11T19:18:22.953Z,23.17
2022-10-11T19:21:12.471Z,27.52
2022-10-11T19:23:58.355Z,25.98
2022-10-11T19:26:44.013Z,33.47
2022-10-11T19:29:30.412Z,28.80
2022-10-11T19:32:18.563Z,30.02
2022-10-11T19:35:04.127Z,32.22
2022-10-11T19:37:49.683Z,32.13
2022-10-11T19:40:38.214Z,35.83
2022-10-11T19:43:24.400Z,37.60
2022-10-11T19:46:20.187Z,33.13
2022-10-11T19:49:15.713Z,34.95
2022-10-11T19:52:01.495Z,32.30
2022-10-11T19:54:46.565Z,34.88
2022-10-11T19:57:32.410Z,36.70
2022-10-11T20:00:18.240Z,24.75
2022-10-11T20:03:04.030Z,34.58
2022-10-11T20:05:52.562Z,38.20
2022-10-11T20:08:38.094Z,38.42
2022-10-11T20:11:24.499Z,32.35
2022-10-11T20:14:10.392Z,33.53
2022-10-11T20:16:55.666Z,34.30
2022-10-11T20:19:45.371Z,41.28
2022-10-11T20:22:31.189Z,34.60
2022-10-11T20:25:16.801Z,33.75
2022-10-11T20:28:04.251Z,35.90
2022-10-11T20:30:50.324Z,37.83
2022-10-11T20:33:35.776Z,36.08
2022-10-11T20:36:22.689Z,30.55
2022-10-11T20:39:08.153Z,37.92
2022-10-11T20:41:53.561Z,33.10
2022-10-11T20:44:38.888Z,35.53
2022-10-11T20:47:24.690Z,29.73
2022-10-11T20:50:10.275Z,46.92
2022-10-11T20:52:55.692Z,28.60
2022-10-11T20:55:41.151Z,33.15
2022-10-11T20:58:29.487Z,30.55
2022-10-11T21:01:20.669Z,43.50
2022-10-11T21:04:07.258Z,31.13
2022-10-11T21:06:52.523Z,36.50
2022-10-11T21:09:37.905Z,30.45
2022-10-11T21:12:23.464Z,34.70
2022-10-11T21:15:09.290Z,26.80
2022-10-11T21:17:55.023Z,39.78
2022-10-11T21:20:44.183Z,35.33
2022-10-11T21:23:30.016Z,31.77
2022-10-11T21:26:18.328Z,29.95
2022-10-11T21:29:04.145Z,27.48
2022-10-11T21:31:52.359Z,33.78
2022-10-11T21:34:37.739Z,30.70
2022-10-11T21:37:23.363Z,35.22
2022-10-11T21:40:09.398Z,33.67
2022-10-11T21:42:54.537Z,27.05
2022-10-11T21:45:40.271Z,29.92
2022-10-11T21:48:25.776Z,42.63
2022-10-11T21:51:18.785Z,42.08
2022-10-11T21:54:10.078Z,29.13
2022-10-11T21:56:55.359Z,34.28
2022-10-11T21:59:40.839Z,33.00
2022-10-11T22:02:26.255Z,34.15
2022-10-11T22:05:14.510Z,38.30
2022-10-11T22:07:59.855Z,27.75
2022-10-11T22:10:52.461Z,37.60
2022-10-11T22:13:38.304Z,35.13
2022-10-11T22:16:23.779Z,35.85
2022-10-11T22:19:09.415Z,37.83
2022-10-11T22:21:54.855Z,35.42
2022-10-11T22:24:40.195Z,35.20
2022-10-11T22:27:28.718Z,35.63
2022-10-11T22:30:17.523Z,33.28
2022-10-11T22:33:03.095Z,44.20
2022-10-11T22:36:00.030Z,31.52
2022-10-11T22:38:45.911Z,39.50
2022-10-11T22:41:33.922Z,40.25
2022-10-11T22:44:19.278Z,41.72
2022-10-11T22:47:07.229Z,38.97
2022-10-11T22:49:52.699Z,43.85
2022-10-11T22:52:39.058Z,36.50
2022-10-11T22:55:26.174Z,42.03
2022-10-11T22:58:11.684Z,39.13
2022-10-11T23:00:57.387Z,37.33
2022-10-11T23:03:43.044Z,37.15
2022-10-11T23:06:28.208Z,44.90
2022-10-11T23:09:13.707Z,36.53
2022-10-11T23:11:59.554Z,45.17
2022-10-11T23:14:44.819Z,39.63
2022-10-11T23:17:30.515Z,54.40
2022-10-11T23:20:16.135Z,41.17
2022-10-11T23:23:01.335Z,40.20
2022-10-11T23:25:46.762Z,48.83
2022-10-11T23:28:32.426Z,39.63
2022-10-11T23:31:18.717Z,41.00
2022-10-11T23:34:04.268Z,46.22
2022-10-11T23:36:49.787Z,37.58
2022-10-11T23:39:35.035Z,49.65
2022-10-11T23:42:20.196Z,43.17
2022-10-11T23:45:06.120Z,56.97
2022-10-11T23:47:51.714Z,35.42
2022-10-11T23:50:36.971Z,36.33
2022-10-11T23:53:22.416Z,40.40
2022-10-11T23:56:09.723Z,49.95
2022-10-11T23:58:57.759Z,53.42
